sensor_id;sensor_type;location;lat;lon;timestamp;temperature;humidity
63013;DHT22;62113;45.624;11.700;2023-02-10T00:01:06;2.40;45.40
63013;DHT22;62113;45.624;11.700;2023-02-10T00:03:33;2.40;45.00
63013;DHT22;62113;45.624;11.700;2023-02-10T00:05:58;2.30;45.10
63013;DHT22;62113;45.624;11.700;2023-02-10T00:08:24;2.30;45.10
63013;DHT22;62113;45.624;11.700;2023-02-10T00:10:50;2.20;45.20
63013;DHT22;62113;45.624;11.700;2023-02-10T00:13:16;2.20;45.60
63013;DHT22;62113;45.624;11.700;2023-02-10T00:15:42;2.20;45.50
63013;DHT22;62113;45.624;11.700;2023-02-10T00:18:07;2.20;45.90
63013;DHT22;62113;45.624;11.700;2023-02-10T00:20:33;2.20;45.70
63013;DHT22;62113;45.624;11.700;2023-02-10T00:22:59;2.20;45.70
63013;DHT22;62113;45.624;11.700;2023-02-10T00:25:24;2.10;46.10
63013;DHT22;62113;45.624;11.700;2023-02-10T00:27:50;2.10;45.80
63013;DHT22;62113;45.624;11.700;2023-02-10T00:30:16;2.10;46.00
63013;DHT22;62113;45.624;11.700;2023-02-10T00:32:41;2.00;46.10
63013;DHT22;62113;45.624;11.700;2023-02-10T00:35:07;2.10;46.20
63013;DHT22;62113;45.624;11.700;2023-02-10T00:37:33;2.10;46.10
63013;DHT22;62113;45.624;11.700;2023-02-10T00:39:59;2.00;46.70
63013;DHT22;62113;45.624;11.700;2023-02-10T00:42:24;2.00;46.20
63013;DHT22;62113;45.624;11.700;2023-02-10T00:44:50;2.00;46.20
63013;DHT22;62113;45.624;11.700;2023-02-10T00:47:17;2.10;46.50
63013;DHT22;62113;45.624;11.700;2023-02-10T00:49:42;2.00;46.40
63013;DHT22;62113;45.624;11.700;2023-02-10T00:52:08;1.90;46.50
63013;DHT22;62113;45.624;11.700;2023-02-10T00:54:34;1.90;46.60
63013;DHT22;62113;45.624;11.700;2023-02-10T00:57:00;1.90;46.70
63013;DHT22;62113;45.624;11.700;2023-02-10T00:59:25;1.90;46.80
63013;DHT22;62113;45.624;11.700;2023-02-10T01:01:51;1.90;46.80
63013;DHT22;62113;45.624;11.700;2023-02-10T01:04:17;1.90;46.90
63013;DHT22;62113;45.624;11.700;2023-02-10T01:06:43;1.90;46.90
63013;DHT22;62113;45.624;11.700;2023-02-10T01:09:08;1.90;47.10
63013;DHT22;62113;45.624;11.700;2023-02-10T01:11:34;1.90;47.10
63013;DHT22;62113;45.624;11.700;2023-02-10T01:14:00;1.80;47.00
63013;DHT22;62113;45.624;11.700;2023-02-10T01:16:25;1.80;47.00
63013;DHT22;62113;45.624;11.700;2023-02-10T01:18:51;1.70;47.00
63013;DHT22;62113;45.624;11.700;2023-02-10T01:21:18;1.70;47.20
63013;DHT22;62113;45.624;11.700;2023-02-10T01:23:46;1.70;47.50
63013;DHT22;62113;45.624;11.700;2023-02-10T01:26:12;1.70;47.40
63013;DHT22;62113;45.624;11.700;2023-02-10T01:28:41;1.70;47.30
63013;DHT22;62113;45.624;11.700;2023-02-10T01:31:09;1.70;47.30
63013;DHT22;62113;45.624;11.700;2023-02-10T01:33:35;1.70;47.30
63013;DHT22;62113;45.624;11.700;2023-02-10T01:36:06;1.70;47.50
63013;DHT22;62113;45.624;11.700;2023-02-10T01:38:32;1.70;47.40
63013;DHT22;62113;45.624;11.700;2023-02-10T01:40:58;1.70;47.70
63013;DHT22;62113;45.624;11.700;2023-02-10T01:43:23;1.70;47.60
63013;DHT22;62113;45.624;11.700;2023-02-10T01:45:49;1.70;47.60
63013;DHT22;62113;45.624;11.700;2023-02-10T01:48:15;1.70;47.50
63013;DHT22;62113;45.624;11.700;2023-02-10T01:50:45;1.70;47.70
63013;DHT22;62113;45.624;11.700;2023-02-10T01:53:13;1.60;47.60
63013;DHT22;62113;45.624;11.700;2023-02-10T01:55:42;1.50;47.70
63013;DHT22;62113;45.624;11.700;2023-02-10T01:58:10;1.50;47.80
63013;DHT22;62113;45.624;11.700;2023-02-10T02:00:37;1.50;47.90
63013;DHT22;62113;45.624;11.700;2023-02-10T02:03:05;1.50;47.90
63013;DHT22;62113;45.624;11.700;2023-02-10T02:05:38;1.50;48.10
63013;DHT22;62113;45.624;11.700;2023-02-10T02:08:16;1.50;47.90
63013;DHT22;62113;45.624;11.700;2023-02-10T02:11:04;1.50;48.00
63013;DHT22;62113;45.624;11.700;2023-02-10T02:25:35;1.40;48.10
63013;DHT22;62113;45.624;11.700;2023-02-10T02:28:23;1.40;48.20
63013;DHT22;62113;45.624;11.700;2023-02-10T02:34:00;1.30;48.30
63013;DHT22;62113;45.624;11.700;2023-02-10T02:36:57;1.30;48.30
63013;DHT22;62113;45.624;11.700;2023-02-10T02:39:26;1.30;48.30
63013;DHT22;62113;45.624;11.700;2023-02-10T02:42:23;1.30;48.30
63013;DHT22;62113;45.624;11.700;2023-02-10T02:44:56;1.30;48.40
63013;DHT22;62113;45.624;11.700;2023-02-10T02:55:50;1.30;49.00
63013;DHT22;62113;45.624;11.700;2023-02-10T02:58:46;1.20;48.60
63013;DHT22;62113;45.624;11.700;2023-02-10T03:01:38;1.20;48.50
63013;DHT22;62113;45.624;11.700;2023-02-10T03:04:07;1.20;48.60
63013;DHT22;62113;45.624;11.700;2023-02-10T03:06:33;1.20;48.70
63013;DHT22;62113;45.624;11.700;2023-02-10T03:08:59;1.10;48.70
63013;DHT22;62113;45.624;11.700;2023-02-10T03:11:25;1.10;48.80
63013;DHT22;62113;45.624;11.700;2023-02-10T03:13:51;1.10;49.30
63013;DHT22;62113;45.624;11.700;2023-02-10T03:16:16;1.10;49.00
63013;DHT22;62113;45.624;11.700;2023-02-10T03:18:42;1.00;49.50
63013;DHT22;62113;45.624;11.700;2023-02-10T03:21:08;1.10;49.30
63013;DHT22;62113;45.624;11.700;2023-02-10T03:23:33;1.00;49.10
63013;DHT22;62113;45.624;11.700;2023-02-10T03:25:59;1.00;49.70
63013;DHT22;62113;45.624;11.700;2023-02-10T03:28:26;0.90;49.40
63013;DHT22;62113;45.624;11.700;2023-02-10T03:30:51;0.80;50.40
63013;DHT22;62113;45.624;11.700;2023-02-10T03:33:18;0.70;49.70
63013;DHT22;62113;45.624;11.700;2023-02-10T03:35:45;0.70;49.80
63013;DHT22;62113;45.624;11.700;2023-02-10T03:38:12;0.70;49.70
63013;DHT22;62113;45.624;11.700;2023-02-10T03:40:38;0.70;49.80
63013;DHT22;62113;45.624;11.700;2023-02-10T03:43:03;0.70;49.80
63013;DHT22;62113;45.624;11.700;2023-02-10T03:45:29;0.70;49.80
63013;DHT22;62113;45.624;11.700;2023-02-10T03:47:55;0.70;49.90
63013;DHT22;62113;45.624;11.700;2023-02-10T03:50:20;0.70;49.90
63013;DHT22;62113;45.624;11.700;2023-02-10T03:52:46;0.70;50.70
63013;DHT22;62113;45.624;11.700;2023-02-10T03:55:12;0.60;50.40
63013;DHT22;62113;45.624;11.700;2023-02-10T03:57:43;0.60;50.70
63013;DHT22;62113;45.624;11.700;2023-02-10T04:00:09;0.60;50.30
63013;DHT22;62113;45.624;11.700;2023-02-10T04:02:35;0.60;50.30
63013;DHT22;62113;45.624;11.700;2023-02-10T04:05:01;0.60;50.40
63013;DHT22;62113;45.624;11.700;2023-02-10T04:07:26;0.60;50.50
63013;DHT22;62113;45.624;11.700;2023-02-10T04:09:52;0.60;50.50
63013;DHT22;62113;45.624;11.700;2023-02-10T04:12:17;0.60;50.40
63013;DHT22;62113;45.624;11.700;2023-02-10T04:14:43;0.70;50.50
63013;DHT22;62113;45.624;11.700;2023-02-10T04:17:09;0.60;50.40
63013;DHT22;62113;45.624;11.700;2023-02-10T04:19:34;0.60;50.30
63013;DHT22;62113;45.624;11.700;2023-02-10T04:22:00;0.60;50.70
63013;DHT22;62113;45.624;11.700;2023-02-10T04:24:26;0.50;50.40
63013;DHT22;62113;45.624;11.700;2023-02-10T04:26:51;0.60;50.50
63013;DHT22;62113;45.624;11.700;2023-02-10T04:29:17;0.50;51.30
63013;DHT22;62113;45.624;11.700;2023-02-10T04:31:42;0.50;50.90
63013;DHT22;62113;45.624;11.700;2023-02-10T04:34:08;0.50;51.20
63013;DHT22;62113;45.624;11.700;2023-02-10T04:36:34;0.50;50.80
63013;DHT22;62113;45.624;11.700;2023-02-10T04:38:59;0.50;50.80
63013;DHT22;62113;45.624;11.700;2023-02-10T04:41:25;0.50;50.80
63013;DHT22;62113;45.624;11.700;2023-02-10T04:43:50;0.50;51.10
63013;DHT22;62113;45.624;11.700;2023-02-10T04:46:16;0.50;50.70
63013;DHT22;62113;45.624;11.700;2023-02-10T04:48:41;0.50;50.60
63013;DHT22;62113;45.624;11.700;2023-02-10T04:51:09;0.50;50.60
63013;DHT22;62113;45.624;11.700;2023-02-10T04:53:35;0.50;50.70
63013;DHT22;62113;45.624;11.700;2023-02-10T04:56:01;0.50;50.70
63013;DHT22;62113;45.624;11.700;2023-02-10T04:58:29;0.50;50.70
63013;DHT22;62113;45.624;11.700;2023-02-10T05:00:55;0.50;50.70
63013;DHT22;62113;45.624;11.700;2023-02-10T05:03:21;0.50;50.70
63013;DHT22;62113;45.624;11.700;2023-02-10T05:05:47;0.50;50.70
63013;DHT22;62113;45.624;11.700;2023-02-10T05:08:12;0.50;50.70
63013;DHT22;62113;45.624;11.700;2023-02-10T05:10:38;0.50;51.00
63013;DHT22;62113;45.624;11.700;2023-02-10T05:13:04;0.50;50.90
63013;DHT22;62113;45.624;11.700;2023-02-10T05:15:29;0.50;50.80
63013;DHT22;62113;45.624;11.700;2023-02-10T05:17:55;0.50;50.70
63013;DHT22;62113;45.624;11.700;2023-02-10T05:20:20;0.50;51.40
63013;DHT22;62113;45.624;11.700;2023-02-10T05:22:46;0.40;50.90
63013;DHT22;62113;45.624;11.700;2023-02-10T05:25:12;0.40;50.90
63013;DHT22;62113;45.624;11.700;2023-02-10T05:27:38;0.30;50.80
63013;DHT22;62113;45.624;11.700;2023-02-10T05:30:05;0.40;50.90
63013;DHT22;62113;45.624;11.700;2023-02-10T05:32:32;0.30;50.90
63013;DHT22;62113;45.624;11.700;2023-02-10T05:34:58;0.30;51.10
63013;DHT22;62113;45.624;11.700;2023-02-10T05:37:23;0.30;51.10
63013;DHT22;62113;45.624;11.700;2023-02-10T05:39:49;0.20;51.00
63013;DHT22;62113;45.624;11.700;2023-02-10T05:42:14;0.20;51.00
63013;DHT22;62113;45.624;11.700;2023-02-10T05:44:40;0.20;51.00
63013;DHT22;62113;45.624;11.700;2023-02-10T05:47:06;0.20;51.10
63013;DHT22;62113;45.624;11.700;2023-02-10T05:49:31;0.20;51.20
63013;DHT22;62113;45.624;11.700;2023-02-10T05:51:58;0.20;51.10
63013;DHT22;62113;45.624;11.700;2023-02-10T05:54:23;0.20;51.30
63013;DHT22;62113;45.624;11.700;2023-02-10T05:56:49;0.20;51.10
63013;DHT22;62113;45.624;11.700;2023-02-10T05:59:16;0.20;51.10
63013;DHT22;62113;45.624;11.700;2023-02-10T06:01:42;0.20;51.10
63013;DHT22;62113;45.624;11.700;2023-02-10T06:04:08;0.20;51.20
63013;DHT22;62113;45.624;11.700;2023-02-10T06:06:34;0.20;51.20
63013;DHT22;62113;45.624;11.700;2023-02-10T06:08:59;0.10;51.30
63013;DHT22;62113;45.624;11.700;2023-02-10T06:11:25;0.10;51.40
63013;DHT22;62113;45.624;11.700;2023-02-10T06:13:50;0.10;51.40
63013;DHT22;62113;45.624;11.700;2023-02-10T06:16:16;0.10;51.50
63013;DHT22;62113;45.624;11.700;2023-02-10T06:18:42;0.10;51.50
63013;DHT22;62113;45.624;11.700;2023-02-10T06:21:08;0.10;51.50
63013;DHT22;62113;45.624;11.700;2023-02-10T06:23:34;0.10;51.50
63013;DHT22;62113;45.624;11.700;2023-02-10T06:26:00;0.20;51.50
63013;DHT22;62113;45.624;11.700;2023-02-10T06:28:27;0.10;51.50
63013;DHT22;62113;45.624;11.700;2023-02-10T06:30:54;0.10;51.60
63013;DHT22;62113;45.624;11.700;2023-02-10T06:33:19;0.10;51.70
63013;DHT22;62113;45.624;11.700;2023-02-10T06:35:46;0.20;51.70
63013;DHT22;62113;45.624;11.700;2023-02-10T06:38:12;0.20;51.90
63013;DHT22;62113;45.624;11.700;2023-02-10T06:40:38;0.20;52.00
63013;DHT22;62113;45.624;11.700;2023-02-10T06:43:03;0.20;51.90
63013;DHT22;62113;45.624;11.700;2023-02-10T06:45:29;0.20;52.00
63013;DHT22;62113;45.624;11.700;2023-02-10T06:47:55;0.30;52.00
63013;DHT22;62113;45.624;11.700;2023-02-10T06:50:21;0.30;51.90
63013;DHT22;62113;45.624;11.700;2023-02-10T06:52:47;0.30;51.90
63013;DHT22;62113;45.624;11.700;2023-02-10T06:55:13;0.40;51.90
63013;DHT22;62113;45.624;11.700;2023-02-10T06:57:39;0.50;52.00
63013;DHT22;62113;45.624;11.700;2023-02-10T07:00:08;0.60;52.20
63013;DHT22;62113;45.624;11.700;2023-02-10T07:02:35;0.80;52.40
63013;DHT22;62113;45.624;11.700;2023-02-10T07:05:01;1.10;51.90
63013;DHT22;62113;45.624;11.700;2023-02-10T07:07:29;1.20;51.50
63013;DHT22;62113;45.624;11.700;2023-02-10T07:09:55;1.30;51.10
63013;DHT22;62113;45.624;11.700;2023-02-10T07:12:21;1.30;50.70
63013;DHT22;62113;45.624;11.700;2023-02-10T07:14:46;1.40;50.60
63013;DHT22;62113;45.624;11.700;2023-02-10T07:17:12;1.40;50.50
63013;DHT22;62113;45.624;11.700;2023-02-10T07:19:38;1.50;50.40
63013;DHT22;62113;45.624;11.700;2023-02-10T07:22:04;1.50;50.40
63013;DHT22;62113;45.624;11.700;2023-02-10T07:24:32;1.70;50.50
63013;DHT22;62113;45.624;11.700;2023-02-10T07:26:58;1.90;50.70
63013;DHT22;62113;45.624;11.700;2023-02-10T07:29:24;2.70;50.00
63013;DHT22;62113;45.624;11.700;2023-02-10T07:31:49;3.60;50.00
63013;DHT22;62113;45.624;11.700;2023-02-10T07:34:15;4.70;46.80
63013;DHT22;62113;45.624;11.700;2023-02-10T07:36:43;5.70;42.90
63013;DHT22;62113;45.624;11.700;2023-02-10T07:39:08;6.70;40.60
63013;DHT22;62113;45.624;11.700;2023-02-10T07:41:36;7.70;39.70
63013;DHT22;62113;45.624;11.700;2023-02-10T07:44:02;8.60;37.70
63013;DHT22;62113;45.624;11.700;2023-02-10T07:46:28;9.40;37.40
63013;DHT22;62113;45.624;11.700;2023-02-10T07:48:53;10.10;36.50
63013;DHT22;62113;45.624;11.700;2023-02-10T07:51:19;10.70;34.40
63013;DHT22;62113;45.624;11.700;2023-02-10T07:53:45;11.30;33.10
63013;DHT22;62113;45.624;11.700;2023-02-10T07:56:10;11.70;32.60
63013;DHT22;62113;45.624;11.700;2023-02-10T07:58:37;12.20;31.10
63013;DHT22;62113;45.624;11.700;2023-02-10T08:01:07;12.50;30.40
63013;DHT22;62113;45.624;11.700;2023-02-10T08:03:32;12.70;31.10
63013;DHT22;62113;45.624;11.700;2023-02-10T08:05:58;12.70;31.40
63013;DHT22;62113;45.624;11.700;2023-02-10T08:08:23;12.60;31.20
63013;DHT22;62113;45.624;11.700;2023-02-10T08:10:49;12.20;31.20
63013;DHT22;62113;45.624;11.700;2023-02-10T08:13:15;12.00;31.70
63013;DHT22;62113;45.624;11.700;2023-02-10T08:15:40;11.60;31.80
63013;DHT22;62113;45.624;11.700;2023-02-10T08:18:06;11.30;32.40
63013;DHT22;62113;45.624;11.700;2023-02-10T08:20:32;11.00;33.00
63013;DHT22;62113;45.624;11.700;2023-02-10T08:22:58;10.80;33.20
63013;DHT22;62113;45.624;11.700;2023-02-10T08:25:26;10.70;33.20
63013;DHT22;62113;45.624;11.700;2023-02-10T08:27:52;10.50;33.30
63013;DHT22;62113;45.624;11.700;2023-02-10T08:30:18;10.50;33.20
63013;DHT22;62113;45.624;11.700;2023-02-10T08:32:44;10.50;33.20
63013;DHT22;62113;45.624;11.700;2023-02-10T08:35:10;10.50;32.60
63013;DHT22;62113;45.624;11.700;2023-02-10T08:37:36;10.70;34.40
63013;DHT22;62113;45.624;11.700;2023-02-10T08:40:02;10.90;31.40
63013;DHT22;62113;45.624;11.700;2023-02-10T08:42:31;11.10;31.10
63013;DHT22;62113;45.624;11.700;2023-02-10T08:44:57;11.20;30.80
63013;DHT22;62113;45.624;11.700;2023-02-10T08:47:22;11.50;31.20
63013;DHT22;62113;45.624;11.700;2023-02-10T08:49:48;11.80;30.70
63013;DHT22;62113;45.624;11.700;2023-02-10T08:52:14;12.10;28.90
63013;DHT22;62113;45.624;11.700;2023-02-10T08:54:39;12.60;28.80
63013;DHT22;62113;45.624;11.700;2023-02-10T08:57:05;12.90;29.10
63013;DHT22;62113;45.624;11.700;2023-02-10T08:59:31;13.20;28.70
63013;DHT22;62113;45.624;11.700;2023-02-10T09:01:56;13.30;28.10
63013;DHT22;62113;45.624;11.700;2023-02-10T09:04:22;13.60;27.70
63013;DHT22;62113;45.624;11.700;2023-02-10T09:06:48;14.30;27.60
63013;DHT22;62113;45.624;11.700;2023-02-10T09:09:17;15.20;27.60
63013;DHT22;62113;45.624;11.700;2023-02-10T09:11:45;16.30;24.50
63013;DHT22;62113;45.624;11.700;2023-02-10T09:14:10;17.30;24.20
63013;DHT22;62113;45.624;11.700;2023-02-10T09:16:36;18.20;23.60
63013;DHT22;62113;45.624;11.700;2023-02-10T09:19:02;19.20;22.70
63013;DHT22;62113;45.624;11.700;2023-02-10T09:21:29;20.00;21.30
63013;DHT22;62113;45.624;11.700;2023-02-10T09:23:54;20.80;20.50
63013;DHT22;62113;45.624;11.700;2023-02-10T09:26:20;21.50;19.90
63013;DHT22;62113;45.624;11.700;2023-02-10T09:28:46;22.20;18.90
63013;DHT22;62113;45.624;11.700;2023-02-10T09:31:12;22.70;18.40
63013;DHT22;62113;45.624;11.700;2023-02-10T09:33:39;23.30;17.60
63013;DHT22;62113;45.624;11.700;2023-02-10T09:36:06;23.80;17.70
63013;DHT22;62113;45.624;11.700;2023-02-10T09:38:32;24.30;17.00
63013;DHT22;62113;45.624;11.700;2023-02-10T09:44:25;25.20;16.30
63013;DHT22;62113;45.624;11.700;2023-02-10T09:55:30;27.10;14.40
63013;DHT22;62113;45.624;11.700;2023-02-10T10:03:59;28.60;13.40
63013;DHT22;62113;45.624;11.700;2023-02-10T10:06:52;29.10;13.20
63013;DHT22;62113;45.624;11.700;2023-02-10T10:09:43;29.40;13.70
63013;DHT22;62113;45.624;11.700;2023-02-10T10:12:17;29.60;13.00
63013;DHT22;62113;45.624;11.700;2023-02-10T10:14:43;30.10;12.80
63013;DHT22;62113;45.624;11.700;2023-02-10T10:35:54;32.70;11.20
63013;DHT22;62113;45.624;11.700;2023-02-10T10:38:30;33.10;11.20
63013;DHT22;62113;45.624;11.700;2023-02-10T10:41:00;33.40;11.00
63013;DHT22;62113;45.624;11.700;2023-02-10T10:43:30;33.70;10.60
63013;DHT22;62113;45.624;11.700;2023-02-10T10:46:19;33.80;10.50
63013;DHT22;62113;45.624;11.700;2023-02-10T10:48:46;33.90;10.80
63013;DHT22;62113;45.624;11.700;2023-02-10T10:51:12;33.40;10.40
63013;DHT22;62113;45.624;11.700;2023-02-10T10:53:51;33.20;10.70
63013;DHT22;62113;45.624;11.700;2023-02-10T10:56:23;32.90;11.10
63013;DHT22;62113;45.624;11.700;2023-02-10T10:58:50;32.60;11.10
63013;DHT22;62113;45.624;11.700;2023-02-10T11:01:18;31.60;11.50
63013;DHT22;62113;45.624;11.700;2023-02-10T11:04:03;29.70;12.10
63013;DHT22;62113;45.624;11.700;2023-02-10T11:06:33;26.30;13.40
63013;DHT22;62113;45.624;11.700;2023-02-10T11:09:01;24.70;14.50
63013;DHT22;62113;45.624;11.700;2023-02-10T11:11:34;22.50;16.30
63013;DHT22;62113;45.624;11.700;2023-02-10T11:14:00;21.10;17.00
63013;DHT22;62113;45.624;11.700;2023-02-10T11:16:27;19.70;18.20
63013;DHT22;62113;45.624;11.700;2023-02-10T11:18:58;18.80;19.20
63013;DHT22;62113;45.624;11.700;2023-02-10T11:21:38;17.70;20.50
63013;DHT22;62113;45.624;11.700;2023-02-10T11:26:52;16.40;23.60
63013;DHT22;62113;45.624;11.700;2023-02-10T11:29:18;16.10;22.90
63013;DHT22;62113;45.624;11.700;2023-02-10T11:31:45;15.80;23.20
63013;DHT22;62113;45.624;11.700;2023-02-10T11:37:27;15.50;24.40
63013;DHT22;62113;45.624;11.700;2023-02-10T11:39:56;15.30;26.50
63013;DHT22;62113;45.624;11.700;2023-02-10T11:42:28;15.30;25.10
63013;DHT22;62113;45.624;11.700;2023-02-10T11:47:35;15.00;24.70
63013;DHT22;62113;45.624;11.700;2023-02-10T11:50:02;14.80;24.60
63013;DHT22;62113;45.624;11.700;2023-02-10T11:52:29;14.40;24.20
63013;DHT22;62113;45.624;11.700;2023-02-10T11:54:56;14.20;24.50
63013;DHT22;62113;45.624;11.700;2023-02-10T11:57:33;14.20;24.50
63013;DHT22;62113;45.624;11.700;2023-02-10T12:03:43;14.30;24.40
63013;DHT22;62113;45.624;11.700;2023-02-10T12:06:25;14.40;24.30
63013;DHT22;62113;45.624;11.700;2023-02-10T12:09:07;14.50;24.60
63013;DHT22;62113;45.624;11.700;2023-02-10T12:12:03;14.60;24.70
63013;DHT22;62113;45.624;11.700;2023-02-10T12:17:29;14.70;24.70
63013;DHT22;62113;45.624;11.700;2023-02-10T12:25:22;14.70;24.30
63013;DHT22;62113;45.624;11.700;2023-02-10T12:28:19;14.70;24.10
63013;DHT22;62113;45.624;11.700;2023-02-10T12:36:36;14.70;24.40
63013;DHT22;62113;45.624;11.700;2023-02-10T12:39:14;14.70;24.30
63013;DHT22;62113;45.624;11.700;2023-02-10T12:41:56;14.70;24.30
63013;DHT22;62113;45.624;11.700;2023-02-10T12:50:02;14.70;24.40
63013;DHT22;62113;45.624;11.700;2023-02-10T12:52:36;14.70;24.50
63013;DHT22;62113;45.624;11.700;2023-02-10T12:55:15;14.70;24.30
63013;DHT22;62113;45.624;11.700;2023-02-10T12:57:55;14.70;24.50
63013;DHT22;62113;45.624;11.700;2023-02-10T13:00:37;14.70;24.40
63013;DHT22;62113;45.624;11.700;2023-02-10T13:03:14;14.60;24.20
63013;DHT22;62113;45.624;11.700;2023-02-10T13:09:05;14.60;24.20
63013;DHT22;62113;45.624;11.700;2023-02-10T13:11:43;14.60;24.40
63013;DHT22;62113;45.624;11.700;2023-02-10T13:14:22;14.60;24.40
63013;DHT22;62113;45.624;11.700;2023-02-10T13:16:55;14.60;24.50
63013;DHT22;62113;45.624;11.700;2023-02-10T13:24:37;14.50;24.00
63013;DHT22;62113;45.624;11.700;2023-02-10T13:27:29;14.40;23.80
63013;DHT22;62113;45.624;11.700;2023-02-10T13:32:59;14.30;24.10
63013;DHT22;62113;45.624;11.700;2023-02-10T13:35:27;14.30;24.10
63013;DHT22;62113;45.624;11.700;2023-02-10T13:37:58;14.30;23.60
63013;DHT22;62113;45.624;11.700;2023-02-10T13:40:33;14.20;23.70
63013;DHT22;62113;45.624;11.700;2023-02-10T13:43:04;14.10;23.10
63013;DHT22;62113;45.624;11.700;2023-02-10T13:45:31;14.00;22.80
63013;DHT22;62113;45.624;11.700;2023-02-10T13:48:06;13.70;23.10
63013;DHT22;62113;45.624;11.700;2023-02-10T13:50:51;13.70;23.60
63013;DHT22;62113;45.624;11.700;2023-02-10T13:58:59;13.40;23.50
63013;DHT22;62113;45.624;11.700;2023-02-10T14:02:02;13.30;23.70
63013;DHT22;62113;45.624;11.700;2023-02-10T14:04:39;13.40;24.10
63013;DHT22;62113;45.624;11.700;2023-02-10T14:07:17;13.40;24.00
63013;DHT22;62113;45.624;11.700;2023-02-10T14:12:32;13.60;24.40
63013;DHT22;62113;45.624;11.700;2023-02-10T14:15:22;13.60;23.40
63013;DHT22;62113;45.624;11.700;2023-02-10T14:17:57;13.40;23.20
63013;DHT22;62113;45.624;11.700;2023-02-10T14:20:28;13.30;23.60
63013;DHT22;62113;45.624;11.700;2023-02-10T14:22:55;13.30;23.80
63013;DHT22;62113;45.624;11.700;2023-02-10T14:25:38;13.30;24.00
63013;DHT22;62113;45.624;11.700;2023-02-10T14:28:11;13.30;23.50
63013;DHT22;62113;45.624;11.700;2023-02-10T14:30:45;13.10;23.10
63013;DHT22;62113;45.624;11.700;2023-02-10T14:33:31;13.00;23.50
63013;DHT22;62113;45.624;11.700;2023-02-10T14:36:00;13.00;23.50
63013;DHT22;62113;45.624;11.700;2023-02-10T14:38:28;13.10;23.80
63013;DHT22;62113;45.624;11.700;2023-02-10T14:40:56;13.10;23.00
63013;DHT22;62113;45.624;11.700;2023-02-10T14:43:28;13.00;22.30
63013;DHT22;62113;45.624;11.700;2023-02-10T14:45:54;12.90;22.70
63013;DHT22;62113;45.624;11.700;2023-02-10T14:48:22;12.80;22.70
63013;DHT22;62113;45.624;11.700;2023-02-10T14:51:02;12.70;22.90
63013;DHT22;62113;45.624;11.700;2023-02-10T14:53:28;12.70;23.00
63013;DHT22;62113;45.624;11.700;2023-02-10T14:55:59;12.70;23.30
63013;DHT22;62113;45.624;11.700;2023-02-10T14:58:25;12.60;22.90
63013;DHT22;62113;45.624;11.700;2023-02-10T15:01:12;12.60;23.30
63013;DHT22;62113;45.624;11.700;2023-02-10T15:03:39;12.60;23.90
63013;DHT22;62113;45.624;11.700;2023-02-10T15:06:06;12.50;23.90
63013;DHT22;62113;45.624;11.700;2023-02-10T15:11:08;12.30;23.50
63013;DHT22;62113;45.624;11.700;2023-02-10T15:13:45;12.30;24.00
63013;DHT22;62113;45.624;11.700;2023-02-10T15:16:14;12.20;23.50
63013;DHT22;62113;45.624;11.700;2023-02-10T15:18:44;12.20;23.80
63013;DHT22;62113;45.624;11.700;2023-02-10T15:21:34;12.10;23.80
63013;DHT22;62113;45.624;11.700;2023-02-10T15:24:00;12.10;23.70
63013;DHT22;62113;45.624;11.700;2023-02-10T15:26:27;12.00;23.80
63013;DHT22;62113;45.624;11.700;2023-02-10T15:29:08;12.00;24.10
63013;DHT22;62113;45.624;11.700;2023-02-10T15:31:34;11.90;24.50
63013;DHT22;62113;45.624;11.700;2023-02-10T15:34:03;11.90;24.70
63013;DHT22;62113;45.624;11.700;2023-02-10T15:37:13;11.90;25.00
63013;DHT22;62113;45.624;11.700;2023-02-10T15:39:34;11.80;25.40
63013;DHT22;62113;45.624;11.700;2023-02-10T15:42:03;11.70;25.70
63013;DHT22;62113;45.624;11.700;2023-02-10T15:44:35;11.70;25.60
63013;DHT22;62113;45.624;11.700;2023-02-10T15:49:41;11.50;25.70
63013;DHT22;62113;45.624;11.700;2023-02-10T15:52:16;11.50;25.90
63013;DHT22;62113;45.624;11.700;2023-02-10T15:54:43;11.40;26.00
63013;DHT22;62113;45.624;11.700;2023-02-10T15:57:12;11.40;26.10
63013;DHT22;62113;45.624;11.700;2023-02-10T15:59:38;11.30;26.10
63013;DHT22;62113;45.624;11.700;2023-02-10T16:02:07;11.30;26.20
63013;DHT22;62113;45.624;11.700;2023-02-10T16:04:35;11.20;26.20
63013;DHT22;62113;45.624;11.700;2023-02-10T16:07:02;11.20;26.30
63013;DHT22;62113;45.624;11.700;2023-02-10T16:09:28;11.10;26.50
63013;DHT22;62113;45.624;11.700;2023-02-10T16:11:55;11.00;26.80
63013;DHT22;62113;45.624;11.700;2023-02-10T16:14:21;11.00;26.90
63013;DHT22;62113;45.624;11.700;2023-02-10T16:16:50;10.90;27.10
63013;DHT22;62113;45.624;11.700;2023-02-10T16:19:21;10.80;27.10
63013;DHT22;62113;45.624;11.700;2023-02-10T16:21:48;10.80;27.20
63013;DHT22;62113;45.624;11.700;2023-02-10T16:24:17;10.80;27.40
63013;DHT22;62113;45.624;11.700;2023-02-10T16:26:43;10.70;27.50
63013;DHT22;62113;45.624;11.700;2023-02-10T16:29:23;10.70;27.70
63013;DHT22;62113;45.624;11.700;2023-02-10T16:31:50;10.60;27.90
63013;DHT22;62113;45.624;11.700;2023-02-10T16:34:16;10.50;28.00
63013;DHT22;62113;45.624;11.700;2023-02-10T16:36:42;10.50;28.00
63013;DHT22;62113;45.624;11.700;2023-02-10T16:39:15;10.40;28.80
63013;DHT22;62113;45.624;11.700;2023-02-10T16:41:40;10.30;29.10
63013;DHT22;62113;45.624;11.700;2023-02-10T16:44:06;10.20;29.00
63013;DHT22;62113;45.624;11.700;2023-02-10T16:46:32;10.20;29.40
63013;DHT22;62113;45.624;11.700;2023-02-10T16:48:57;10.10;29.70
63013;DHT22;62113;45.624;11.700;2023-02-10T16:51:23;10.00;30.00
63013;DHT22;62113;45.624;11.700;2023-02-10T16:53:49;9.90;29.80
63013;DHT22;62113;45.624;11.700;2023-02-10T16:56:20;9.80;29.80
63013;DHT22;62113;45.624;11.700;2023-02-10T16:58:46;9.80;30.30
63013;DHT22;62113;45.624;11.700;2023-02-10T17:01:12;9.70;30.90
63013;DHT22;62113;45.624;11.700;2023-02-10T17:03:38;9.70;31.10
63013;DHT22;62113;45.624;11.700;2023-02-10T17:06:04;9.60;30.90
63013;DHT22;62113;45.624;11.700;2023-02-10T17:08:30;9.50;30.70
63013;DHT22;62113;45.624;11.700;2023-02-10T17:10:55;9.40;31.10
63013;DHT22;62113;45.624;11.700;2023-02-10T17:13:21;9.30;31.30
63013;DHT22;62113;45.624;11.700;2023-02-10T17:15:47;9.30;31.10
63013;DHT22;62113;45.624;11.700;2023-02-10T17:18:14;9.20;31.30
63013;DHT22;62113;45.624;11.700;2023-02-10T17:20:39;9.20;31.30
63013;DHT22;62113;45.624;11.700;2023-02-10T17:23:05;9.20;31.60
63013;DHT22;62113;45.624;11.700;2023-02-10T17:25:32;9.10;32.10
63013;DHT22;62113;45.624;11.700;2023-02-10T17:28:00;9.00;31.90
63013;DHT22;62113;45.624;11.700;2023-02-10T17:30:26;9.00;31.90
63013;DHT22;62113;45.624;11.700;2023-02-10T17:32:52;8.90;32.10